Time;durP1;ratioP1;P1;durP2;ratioP2;P2;SDS_P1;SDS_P2;PMS_P1;PMS_P2;Temp;Humidity;BMP_temperature;BMP_pressure;BME280_temperature;BME280_humidity;BME280_pressure;Samples;Min_cycle;Max_cycle;Signal;HPM_P1;HPM_P2
2021/10/09 00:01:16;;;;;;;25.20;12.68;;;;;;;3.35;71.14;101895.59;2024986;86;21085;-80
2021/10/09 00:04:18;;;;;;;23.73;12.73;;;;;;;3.34;71.10;101898.27;1984239;88;21543;-81
2021/10/09 00:07:19;;;;;;;28.23;12.47;;;;;;;3.33;71.16;101899.22;2008866;88;20962;-77
2021/10/09 00:10:28;;;;;;;24.10;11.45;;;;;;;3.32;71.30;101900.12;2029017;87;20990;-77
2021/10/09 00:13:30;;;;;;;24.10;11.68;;;;;;;3.30;71.33;101900.68;1999959;88;21015;-78
2021/10/09 00:16:32;;;;;;;24.77;12.50;;;;;;;3.31;71.34;101895.80;1980130;89;21014;-79
2021/10/09 00:19:33;;;;;;;23.65;12.15;;;;;;;3.30;71.39;101901.99;1956654;89;21106;-78
2021/10/09 00:22:35;;;;;;;29.35;14.05;;;;;;;3.27;71.33;101902.15;1983790;89;21015;-81
2021/10/09 00:25:37;;;;;;;26.65;14.00;;;;;;;3.23;71.41;101888.78;1981393;88;21049;-77
2021/10/09 00:28:38;;;;;;;28.05;12.70;;;;;;;3.20;71.36;101900.27;1982359;89;21037;-79
2021/10/09 00:31:40;;;;;;;29.18;13.70;;;;;;;3.13;71.39;101893.17;1996732;88;21026;-79
2021/10/09 00:34:42;;;;;;;23.20;11.70;;;;;;;3.10;71.51;101901.20;2008248;88;21561;-78
2021/10/09 00:37:43;;;;;;;30.02;12.37;;;;;;;3.11;71.50;101895.48;2009969;87;21597;-80
2021/10/09 00:40:45;;;;;;;20.95;11.35;;;;;;;3.12;71.54;101894.08;2009767;87;21089;-80
2021/10/09 00:43:47;;;;;;;24.15;11.75;;;;;;;3.12;71.55;101891.45;2010856;87;21089;-78
2021/10/09 00:46:48;;;;;;;28.70;11.85;;;;;;;3.14;71.64;101890.08;2010343;88;21492;-79
2021/10/09 00:49:50;;;;;;;25.70;11.22;;;;;;;3.16;71.60;101882.16;2009141;88;21046;-78
2021/10/09 00:52:55;;;;;;;25.10;11.55;;;;;;;3.20;71.92;101887.62;2010279;87;21012;-78
2021/10/09 00:56:00;;;;;;;26.10;11.90;;;;;;;3.18;71.63;101887.68;2009545;87;21026;-79
2021/10/09 00:59:03;;;;;;;22.62;11.48;;;;;;;3.21;71.59;101887.56;2010020;88;21061;-79
2021/10/09 01:02:04;;;;;;;27.45;13.48;;;;;;;3.25;71.67;101881.22;2010873;87;21054;-79
2021/10/09 01:05:09;;;;;;;26.40;12.93;;;;;;;3.21;71.58;101885.38;2009395;88;21655;-80
2021/10/09 01:08:11;;;;;;;25.35;12.98;;;;;;;3.19;71.62;101884.16;2010477;87;21505;-79
2021/10/09 01:11:13;;;;;;;25.45;12.95;;;;;;;3.17;71.64;101882.53;2010084;87;21030;-77
2021/10/09 01:14:15;;;;;;;24.27;11.55;;;;;;;3.17;71.56;101884.69;2010169;88;21081;-79
2021/10/09 01:17:16;;;;;;;26.27;12.63;;;;;;;3.11;71.63;101890.23;2007567;87;21537;-78
2021/10/09 01:20:19;;;;;;;23.05;12.90;;;;;;;3.07;71.70;101883.42;2009210;88;21112;-77
2021/10/09 01:23:23;;;;;;;26.00;10.72;;;;;;;3.04;71.73;101884.45;2010189;87;21045;-79
2021/10/09 01:26:25;;;;;;;27.82;11.15;;;;;;;3.05;71.66;101886.14;2008853;87;21481;-80
2021/10/09 01:29:27;;;;;;;21.20;10.13;;;;;;;3.04;71.78;101888.83;2009194;88;21108;-79
2021/10/09 01:32:31;;;;;;;28.75;12.35;;;;;;;3.04;71.86;101887.08;1990082;87;21570;-79
2021/10/09 01:35:52;;;;;;;27.77;11.20;;;;;;;3.04;71.91;101880.95;1984853;88;21564;-78
2021/10/09 01:38:56;;;;;;;26.37;11.53;;;;;;;3.00;72.00;101880.27;1985213;88;21093;-78
2021/10/09 01:41:59;;;;;;;24.57;12.63;;;;;;;2.99;72.04;101877.27;1978959;88;21610;-79
2021/10/09 01:45:06;;;;;;;22.82;10.90;;;;;;;2.98;72.09;101876.02;1980886;88;21094;-80
2021/10/09 01:48:08;;;;;;;21.55;10.75;;;;;;;2.92;72.10;101878.48;1979037;88;21045;-81
2021/10/09 01:51:12;;;;;;;21.02;10.35;;;;;;;2.88;72.20;101883.03;1981112;88;21541;-78
2021/10/09 01:54:14;;;;;;;22.82;11.20;;;;;;;2.82;72.42;101874.16;1982834;88;21033;-79
2021/10/09 01:57:15;;;;;;;23.98;11.15;;;;;;;2.79;72.32;101871.69;1984129;88;21525;-78
2021/10/09 02:00:18;;;;;;;22.48;10.50;;;;;;;2.78;72.54;101875.67;1980042;88;21095;-81
2021/10/09 02:03:24;;;;;;;20.45;10.38;;;;;;;2.76;72.39;101877.51;1984557;88;21102;-80
2021/10/09 02:06:26;;;;;;;25.48;12.20;;;;;;;2.72;72.37;101873.35;1982728;88;21554;-81
2021/10/09 02:09:28;;;;;;;27.10;12.58;;;;;;;2.67;72.51;101872.25;1983862;88;21422;-76
2021/10/09 02:12:31;;;;;;;23.95;11.95;;;;;;;2.65;72.58;101868.41;1982895;88;21222;-78
2021/10/09 02:15:41;;;;;;;23.73;11.88;;;;;;;2.59;72.62;101873.95;1981840;88;21524;-79
2021/10/09 02:28:04;;;;;;;21.87;10.28;;;;;;;2.61;72.93;101877.78;1985143;88;21667;-78
2021/10/09 02:31:06;;;;;;;23.90;12.23;;;;;;;2.63;72.92;101879.88;1987927;87;21590;-79
2021/10/09 02:34:07;;;;;;;23.55;11.68;;;;;;;2.65;72.99;101880.67;2008850;87;21058;-79
2021/10/09 02:37:09;;;;;;;24.23;11.45;;;;;;;2.65;73.03;101883.29;2008677;87;21128;-78
2021/10/09 02:40:14;;;;;;;28.92;11.40;;;;;;;2.64;73.04;101879.80;2009274;87;21082;-79
2021/10/09 02:43:15;;;;;;;27.65;13.35;;;;;;;2.66;73.08;101877.95;2009243;87;21532;-80
2021/10/09 02:46:17;;;;;;;20.82;11.80;;;;;;;2.65;73.17;101878.89;2008150;87;21037;-80
2021/10/09 02:49:19;;;;;;;19.02;10.38;;;;;;;2.59;73.07;101877.00;2008549;87;21030;-80
2021/10/09 02:52:21;;;;;;;28.87;11.60;;;;;;;2.56;73.11;101876.72;2010450;87;21541;-79
2021/10/09 02:55:23;;;;;;;22.55;11.33;;;;;;;2.49;73.20;101870.05;2009073;88;21066;-81
2021/10/09 02:58:25;;;;;;;20.92;10.43;;;;;;;2.45;73.13;101881.61;2008895;88;21058;-79
2021/10/09 03:01:26;;;;;;;20.20;10.40;;;;;;;2.41;73.27;101874.79;2010054;87;21597;-79
2021/10/09 03:04:28;;;;;;;22.58;11.45;;;;;;;2.36;73.43;101874.15;2007582;87;21604;-80
2021/10/09 03:07:29;;;;;;;24.87;11.45;;;;;;;2.32;73.69;101874.76;2010038;87;21002;-80
2021/10/09 03:10:32;;;;;;;23.62;11.53;;;;;;;2.29;73.56;101872.75;2009099;87;21014;-79
2021/10/09 03:13:34;;;;;;;28.25;12.82;;;;;;;2.25;73.75;101875.95;2009027;88;21724;-79
2021/10/09 03:16:36;;;;;;;23.42;11.53;;;;;;;2.20;73.85;101876.17;2009725;87;21552;-81
2021/10/09 03:19:37;;;;;;;18.85;10.45;;;;;;;2.17;73.84;101878.09;2009616;87;21090;-81
2021/10/09 03:22:40;;;;;;;22.70;11.83;;;;;;;2.15;73.81;101878.15;2009072;87;21145;-82
2021/10/09 03:25:43;;;;;;;29.23;12.05;;;;;;;2.14;74.04;101881.70;1986019;88;21062;-78
2021/10/09 03:28:46;;;;;;;25.40;11.43;;;;;;;2.14;73.98;101880.82;2010048;88;21034;-79
2021/10/09 03:31:48;;;;;;;22.60;11.70;;;;;;;2.10;74.06;101877.97;2003181;87;21050;-81
2021/10/09 03:34:50;;;;;;;26.55;11.03;;;;;;;2.06;74.17;101869.41;1953147;89;21061;-78
2021/10/09 03:37:51;;;;;;;22.65;11.95;;;;;;;2.04;74.18;101873.86;1983585;89;21109;-78
2021/10/09 03:41:00;;;;;;;20.97;11.35;;;;;;;2.04;74.26;101882.17;1979302;89;21053;-80
2021/10/09 03:43:58;;;;;;;23.27;12.73;;;;;;;2.01;74.42;101878.77;1978540;89;21608;-78
2021/10/09 03:47:11;;;;;;;26.90;13.05;;;;;;;2.01;74.51;101884.01;1977444;89;20989;-79
2021/10/09 03:50:21;;;;;;;23.62;12.37;;;;;;;1.99;74.38;101879.75;1975112;89;21090;-79
2021/10/09 03:53:21;;;;;;;20.57;11.30;;;;;;;1.99;74.44;101882.38;1979575;89;21077;-78
2021/10/09 03:56:22;;;;;;;22.52;11.48;;;;;;;2.01;74.64;101883.16;1980221;89;21042;-80
2021/10/09 03:59:25;;;;;;;24.75;10.88;;;;;;;2.01;74.53;101889.24;1976121;89;21105;-79
2021/10/09 04:02:28;;;;;;;19.10;10.58;;;;;;;2.06;74.50;101888.20;1979907;89;21014;-79
2021/10/09 04:05:29;;;;;;;28.45;12.45;;;;;;;2.07;74.54;101886.81;1981142;89;21131;-79
2021/10/09 04:08:33;;;;;;;25.93;11.63;;;;;;;2.08;74.64;101883.27;2064483;84;21174;-78
2021/10/09 04:11:35;;;;;;;25.45;12.13;;;;;;;2.06;74.56;101890.83;2119062;82;21044;-79
2021/10/09 04:14:36;;;;;;;22.07;12.28;;;;;;;2.06;74.57;101884.28;2096642;82;20986;-78
2021/10/09 04:17:38;;;;;;;26.07;12.55;;;;;;;2.01;74.71;101898.41;2114779;82;21485;-78
2021/10/09 04:20:41;;;;;;;27.82;12.82;;;;;;;1.99;75.21;101896.77;2121133;82;21055;-77
2021/10/09 04:23:42;;;;;;;26.75;12.37;;;;;;;1.95;74.88;101902.61;2117604;82;21053;-80
2021/10/09 04:26:46;;;;;;;18.98;11.30;;;;;;;1.94;74.99;101892.19;2126288;82;21509;-79
2021/10/09 04:29:47;;;;;;;24.43;12.03;;;;;;;1.93;74.92;101899.20;2119138;82;21065;-77
2021/10/09 04:32:49;;;;;;;24.00;12.73;;;;;;;1.89;75.05;101889.80;2121982;82;21367;-82
2021/10/09 04:35:52;;;;;;;27.90;14.63;;;;;;;1.88;74.98;101895.09;2114703;82;21018;-77
2021/10/09 04:38:55;;;;;;;28.15;13.00;;;;;;;1.83;75.04;101897.05;2113343;82;21078;-78
2021/10/09 04:41:57;;;;;;;19.85;12.37;;;;;;;1.78;75.09;101901.20;2118619;82;21041;-75
2021/10/09 04:44:58;;;;;;;24.27;12.65;;;;;;;1.74;75.12;101898.30;2121309;82;20958;-76
2021/10/09 04:48:04;;;;;;;33.42;12.33;;;;;;;1.73;75.17;101904.00;2124632;82;21279;-75
2021/10/09 04:51:06;;;;;;;22.42;12.45;;;;;;;1.71;75.26;101895.82;2119439;82;21105;-77
2021/10/09 04:54:07;;;;;;;24.27;13.45;;;;;;;1.71;75.34;101890.13;2116954;82;21483;-75
2021/10/09 04:57:10;;;;;;;24.95;12.40;;;;;;;1.74;75.54;101904.38;2116336;82;21061;-76
2021/10/09 05:00:12;;;;;;;26.93;12.47;;;;;;;1.76;75.53;101904.33;2115586;82;21049;-77
2021/10/09 05:03:16;;;;;;;29.35;14.05;;;;;;;1.77;75.50;101912.13;2120643;82;21029;-76
2021/10/09 05:06:17;;;;;;;27.93;13.38;;;;;;;1.78;75.57;101912.51;2117400;82;21516;-75
2021/10/09 05:09:19;;;;;;;24.87;14.70;;;;;;;1.79;75.50;101913.36;2122665;82;21056;-76
2021/10/09 05:12:21;;;;;;;26.70;14.03;;;;;;;1.78;75.48;101916.90;2100800;82;21080;-77
2021/10/09 05:15:23;;;;;;;27.82;13.68;;;;;;;1.77;75.48;101929.14;2117776;82;21097;-78
2021/10/09 05:18:25;;;;;;;25.70;14.38;;;;;;;1.75;75.52;101927.50;2116514;82;21415;-77
2021/10/09 05:21:27;;;;;;;29.23;13.35;;;;;;;1.78;75.59;101928.68;2121017;82;21097;-76
2021/10/09 05:24:29;;;;;;;29.37;14.05;;;;;;;1.91;75.63;101931.59;2122225;82;20978;-76
2021/10/09 05:27:34;;;;;;;27.95;14.23;;;;;;;2.09;75.65;101933.89;2115761;82;21553;-78
2021/10/09 05:30:35;;;;;;;31.80;14.05;;;;;;;2.39;75.67;101935.58;2119070;82;21491;-78
2021/10/09 05:33:39;;;;;;;28.95;15.72;;;;;;;2.69;75.44;101941.19;2119157;82;21056;-76
2021/10/09 05:36:41;;;;;;;28.95;15.48;;;;;;;2.99;75.31;101940.21;2120460;82;21045;-77
2021/10/09 05:39:43;;;;;;;26.20;13.83;;;;;;;3.30;74.90;101937.41;2120916;82;21029;-77
2021/10/09 05:42:45;;;;;;;22.73;11.97;;;;;;;3.63;74.61;101936.17;2120987;82;21013;-76
2021/10/09 05:45:46;;;;;;;24.02;14.25;;;;;;;3.95;74.12;101942.41;2117324;82;21352;-77
2021/10/09 05:48:49;;;;;;;30.57;15.63;;;;;;;4.30;74.00;101942.33;2121304;82;21090;-79
2021/10/09 05:55:10;;;;;;;29.30;16.30;;;;;;;4.68;72.98;101936.80;2123880;82;21010;-76
2021/10/09 06:38:13;;;;;;;31.77;13.83;;;;;;;8.65;65.72;101954.48;2076111;83;21065;-78
2021/10/09 06:44:26;;;;;;;28.10;14.95;;;;;;;8.88;65.34;101958.97;2078741;84;21105;-78
2021/10/09 07:00:06;;;;;;;28.00;15.73;;;;;;;9.04;63.19;101976.37;2113045;83;21017;-77
2021/10/09 07:03:09;;;;;;;25.70;14.33;;;;;;;9.06;62.55;101981.09;2113437;82;21021;-78
2021/10/09 07:06:15;;;;;;;29.65;16.67;;;;;;;9.14;62.80;101976.08;2114370;82;21005;-77
2021/10/09 07:09:22;;;;;;;;;;;;;;;9.04;62.55;101978.57;2114741;82;21131;-78
2021/10/09 07:12:29;;;;;;;26.50;14.80;;;;;;;9.42;62.80;101983.68;2111445;81;20182;-78
2021/10/09 07:15:31;;;;;;;22.62;13.83;;;;;;;9.60;62.55;101986.78;2109201;83;20992;-78
2021/10/09 07:18:32;;;;;;;24.15;15.18;;;;;;;9.76;62.92;101983.80;2111819;82;21036;-76
2021/10/09 07:21:35;;;;;;;30.40;15.65;;;;;;;10.03;61.73;101978.70;2114561;82;21481;-76
2021/10/09 07:24:36;;;;;;;28.38;15.15;;;;;;;10.19;61.52;101979.22;2096180;83;21103;-76
2021/10/09 07:27:38;;;;;;;25.00;14.07;;;;;;;10.23;60.32;101982.47;2094032;83;21433;-76
2021/10/09 07:30:41;;;;;;;24.57;14.83;;;;;;;10.20;60.00;101984.03;2095301;83;21018;-76
2021/10/09 07:33:42;;;;;;;24.85;14.47;;;;;;;10.24;59.81;101984.14;2095673;83;21503;-76
2021/10/09 07:36:44;;;;;;;28.07;15.10;;;;;;;10.35;60.04;101991.31;2093798;83;21602;-77
2021/10/09 07:39:46;;;;;;;24.12;14.25;;;;;;;10.47;59.77;101984.58;2095338;83;21450;-78
2021/10/09 07:42:47;;;;;;;24.75;14.35;;;;;;;10.63;59.12;101992.16;2095274;83;21053;-77
2021/10/09 07:45:49;;;;;;;24.07;15.68;;;;;;;10.52;58.33;101992.16;2094098;83;21528;-77
2021/10/09 07:48:51;;;;;;;31.90;15.65;;;;;;;10.56;58.66;101992.30;2094573;83;21038;-80
2021/10/09 07:51:53;;;;;;;25.85;14.47;;;;;;;10.63;57.11;102000.11;2094852;83;21103;-77
2021/10/09 07:54:56;;;;;;;27.42;14.65;;;;;;;10.72;58.28;102003.36;2094721;83;21529;-77
2021/10/09 07:57:57;;;;;;;24.52;14.47;;;;;;;10.74;57.83;101996.61;2094249;83;21059;-77
2021/10/09 08:01:01;;;;;;;23.62;14.15;;;;;;;10.82;57.84;102000.00;2095070;83;21014;-80
2021/10/09 08:04:02;;;;;;;32.00;15.83;;;;;;;11.08;57.14;102005.38;2096341;83;21068;-77
2021/10/09 08:07:04;;;;;;;24.82;15.53;;;;;;;11.10;56.94;102010.58;2095219;83;21049;-77
2021/10/09 08:10:06;;;;;;;24.25;14.60;;;;;;;11.09;57.59;102005.72;2095003;84;21038;-76
2021/10/09 08:13:08;;;;;;;25.05;14.25;;;;;;;11.27;57.10;102006.06;2095371;83;21002;-76
2021/10/09 08:16:11;;;;;;;25.70;13.90;;;;;;;11.27;57.10;102006.06;2095749;83;21598;-76
2021/10/09 08:19:13;;;;;;;22.62;14.38;;;;;;;11.40;56.67;102009.87;2094995;83;20985;-76
2021/10/09 08:22:14;;;;;;;29.35;16.00;;;;;;;11.49;56.78;102009.13;2096123;82;20982;-78
2021/10/09 08:41:30;;;;;;;22.25;13.22;;;;;;;12.18;54.17;102010.49;2100984;83;21575;-76
2021/10/09 08:44:31;;;;;;;22.87;11.88;;;;;;;12.25;54.07;102011.17;2104962;83;21543;-73
2021/10/09 08:47:35;;;;;;;21.00;11.63;;;;;;;12.48;53.06;102013.18;2103704;83;20958;-76
2021/10/09 08:50:36;;;;;;;24.77;10.82;;;;;;;12.33;52.42;102006.50;2101680;83;21005;-76
2021/10/09 08:53:42;;;;;;;22.80;11.20;;;;;;;12.48;53.24;102010.52;2103310;83;21040;-77
2021/10/09 08:56:47;;;;;;;20.17;10.53;;;;;;;12.41;50.35;102002.69;2105519;83;21016;-75
2021/10/09 09:00:05;;;;;;;19.32;10.88;;;;;;;12.29;50.46;102002.43;2103038;83;21038;-77
2021/10/09 09:03:10;;;;;;;18.45;10.85;;;;;;;12.33;51.11;102007.83;2102005;83;22593;-79
2021/10/09 09:06:25;;;;;;;16.35;10.25;;;;;;;12.33;50.94;102001.17;2059578;83;28995;-76
2021/10/09 09:26:32;;;;;;;13.80;9.10;;;;;;;12.49;47.00;101997.55;2117867;81;21036;-82
2021/10/09 09:33:03;;;;;;;14.47;8.28;;;;;;;12.65;48.46;101996.23;2066381;81;21061;-83
2021/10/09 09:39:06;;;;;;;10.80;7.15;;;;;;;12.42;46.85;102001.73;2067086;83;20997;-74
2021/10/09 09:42:08;;;;;;;15.72;8.73;;;;;;;12.50;46.92;101993.06;2090797;83;20987;-69
2021/10/09 09:45:12;;;;;;;11.28;7.65;;;;;;;12.61;46.90;101998.30;2116784;81;21076;-72
2021/10/09 09:48:14;;;;;;;13.38;7.67;;;;;;;12.60;45.64;102006.43;2119895;82;21563;-73
2021/10/09 09:51:20;;;;;;;12.78;6.92;;;;;;;12.44;45.11;101997.59;2117753;83;20973;-80
2021/10/09 09:54:26;;;;;;;12.47;6.87;;;;;;;12.40;44.85;101999.69;2113669;83;21370;-80
2021/10/09 09:57:43;;;;;;;9.75;6.67;;;;;;;12.44;45.37;101992.27;2114291;83;21044;-79
2021/10/09 10:00:48;;;;;;;12.90;6.53;;;;;;;12.43;44.76;101995.42;2115057;81;21635;-81
2021/10/09 10:03:50;;;;;;;10.08;6.90;;;;;;;12.43;44.34;101983.44;2121042;82;21634;-80
2021/10/09 10:06:52;;;;;;;13.20;7.60;;;;;;;12.44;45.01;101986.94;2118095;81;21056;-81
2021/10/09 10:09:54;;;;;;;10.98;6.17;;;;;;;12.43;43.83;101990.59;2117453;81;21088;-78
2021/10/09 10:12:59;;;;;;;10.30;6.60;;;;;;;12.43;43.99;101985.27;2115009;82;21032;-80
2021/10/09 10:16:06;;;;;;;12.03;6.40;;;;;;;12.50;45.17;101989.06;2094006;81;21002;-77
2021/10/09 10:19:09;;;;;;;13.70;8.35;;;;;;;12.60;44.30;102002.44;2117606;81;21032;-78
2021/10/09 10:22:11;;;;;;;12.10;6.85;;;;;;;12.58;43.15;101973.27;2117759;83;21037;-78
2021/10/09 10:25:29;;;;;;;17.75;7.42;;;;;;;12.50;43.83;101985.07;2098314;83;21001;-79
2021/10/09 10:28:30;;;;;;;16.52;7.87;;;;;;;12.40;42.99;101974.39;2096679;83;21033;-79
2021/10/09 10:31:36;;;;;;;13.85;7.25;;;;;;;12.41;44.19;101969.91;2094618;83;21018;-81
2021/10/09 10:34:38;;;;;;;9.93;7.22;;;;;;;12.45;43.78;101970.02;2096764;83;20965;-81
2021/10/09 10:37:39;;;;;;;12.25;7.15;;;;;;;12.42;43.91;101973.78;2093896;83;21535;-77
2021/10/09 10:41:00;;;;;;;14.80;7.80;;;;;;;12.60;44.24;101967.33;2093638;83;21523;-75
2021/10/09 10:44:01;;;;;;;13.45;7.78;;;;;;;12.71;44.34;101967.22;2095492;83;20994;-77
2021/10/09 10:47:04;;;;;;;15.58;7.90;;;;;;;12.79;44.93;101955.89;2095118;83;20988;-77
2021/10/09 10:50:21;;;;;;;10.88;6.67;;;;;;;12.93;44.04;101960.83;2073891;83;21089;-77
2021/10/09 10:53:18;;;;;;;11.33;6.70;;;;;;;12.84;42.88;101959.00;2095437;83;21079;-76
2021/10/09 10:56:14;;;;;;;10.82;6.78;;;;;;;12.81;41.96;101964.60;2070984;85;21035;-77
2021/10/09 10:59:52;;;;;;;12.85;5.92;;;;;;;12.85;42.49;101952.68;2093542;83;21064;-78
2021/10/09 11:02:55;;;;;;;12.55;7.25;;;;;;;12.73;39.98;101971.09;2094166;83;21096;-83
2021/10/09 11:05:57;;;;;;;11.57;6.65;;;;;;;12.69;41.69;101941.70;2095282;83;20982;-83
2021/10/09 11:08:58;;;;;;;9.50;6.20;;;;;;;12.72;41.03;101939.59;2094152;83;21002;-82
2021/10/09 11:12:00;;;;;;;16.45;6.20;;;;;;;12.76;40.52;101943.69;2095842;83;21024;-79
2021/10/09 11:15:19;;;;;;;10.15;5.87;;;;;;;12.77;40.90;101944.52;2093441;83;21559;-81
2021/10/09 11:18:21;;;;;;;12.85;6.55;;;;;;;12.71;40.87;101925.09;2081649;84;21073;-78
2021/10/09 11:21:23;;;;;;;9.95;6.20;;;;;;;12.73;39.81;101936.47;2094620;83;21057;-75
2021/10/09 11:24:44;;;;;;;11.10;6.65;;;;;;;12.71;40.49;101926.44;2105974;82;21105;-80
2021/10/09 11:27:46;;;;;;;17.05;7.10;;;;;;;12.82;41.39;101926.31;2112620;82;21002;-79
2021/10/09 11:30:47;;;;;;;13.30;6.67;;;;;;;12.95;40.12;101937.56;2114854;82;21092;-79
2021/10/09 11:33:59;;;;;;;13.30;6.12;;;;;;;12.84;40.72;101915.04;2114577;83;21017;-78
2021/10/09 11:37:01;;;;;;;10.32;5.80;;;;;;;12.93;40.12;101920.87;2112100;82;21013;-78
2021/10/09 11:40:04;;;;;;;11.50;5.72;;;;;;;12.89;39.42;101910.11;2116789;82;21445;-66
2021/10/09 11:43:29;;;;;;;15.55;6.25;;;;;;;12.87;39.37;101913.44;2113413;82;21049;-79
2021/10/09 11:53:41;;;;;;;11.83;5.67;;;;;;;12.79;39.46;101919.94;2114889;81;21021;-81
2021/10/09 11:56:43;;;;;;;11.80;5.83;;;;;;;12.75;38.97;101915.84;2112758;82;21068;-79
2021/10/09 11:59:45;;;;;;;10.48;5.60;;;;;;;12.79;39.29;101914.61;2114510;83;21068;-79
2021/10/09 12:02:46;;;;;;;11.25;5.75;;;;;;;12.75;39.22;101907.85;2111704;82;21088;-80
2021/10/09 12:05:57;;;;;;;12.35;6.05;;;;;;;12.78;39.30;101902.25;2116245;82;20977;-79
2021/10/09 12:09:00;;;;;;;9.63;6.03;;;;;;;12.84;39.79;101898.19;2113569;81;21064;-71
2021/10/09 12:12:27;;;;;;;9.45;5.72;;;;;;;12.97;40.00;101890.28;2118415;82;22324;-80
2021/10/09 12:15:28;;;;;;;11.00;5.37;;;;;;;13.06;40.10;101894.43;2115364;82;21559;-81
2021/10/09 12:18:47;;;;;;;8.45;5.08;;;;;;;13.02;38.22;101903.20;2113232;83;21051;-80
2021/10/09 12:21:55;;;;;;;11.12;6.12;;;;;;;12.82;38.58;101906.83;2114902;82;21492;-79
2021/10/09 12:24:57;;;;;;;9.30;5.70;;;;;;;12.72;40.05;101896.14;2102435;83;21092;-81
2021/10/09 12:28:02;;;;;;;9.70;5.58;;;;;;;12.75;39.75;101894.53;2096360;83;21560;-81
2021/10/09 12:31:04;;;;;;;12.95;6.03;;;;;;;12.76;39.14;101887.75;2097144;83;20973;-81
2021/10/09 12:34:29;;;;;;;12.25;6.72;;;;;;;12.84;39.31;101888.41;2096523;83;21044;-81
2021/10/09 12:37:30;;;;;;;20.95;6.45;;;;;;;12.81;39.84;101886.02;2069639;84;21044;-82
2021/10/09 12:40:46;;;;;;;14.63;5.85;;;;;;;12.77;39.75;101893.91;2097265;83;21476;-81
2021/10/09 12:43:47;;;;;;;11.97;5.80;;;;;;;12.75;38.78;101883.88;2094792;83;21096;-71
2021/10/09 12:46:49;;;;;;;8.65;5.85;;;;;;;12.68;39.21;101886.77;2094048;83;21045;-81
2021/10/09 12:49:51;;;;;;;7.40;5.30;;;;;;;12.63;39.43;101887.66;2095498;83;21112;-78
2021/10/09 12:52:55;;;;;;;10.38;5.17;;;;;;;12.54;38.92;101882.17;2094200;84;21639;-83
2021/10/09 12:55:57;;;;;;;11.73;5.58;;;;;;;12.49;39.48;101885.72;2096341;83;21061;-84
2021/10/09 12:58:59;;;;;;;9.10;4.87;;;;;;;12.47;40.19;101877.52;2094215;83;21025;-84
2021/10/09 13:02:00;;;;;;;7.45;5.60;;;;;;;12.49;39.56;101876.90;2095574;83;21060;-84
2021/10/09 13:05:02;;;;;;;11.63;5.70;;;;;;;12.49;39.99;101878.23;2094657;83;21041;-84
2021/10/09 13:08:05;;;;;;;10.70;5.70;;;;;;;12.46;39.02;101878.02;2095935;83;21547;-82
2021/10/09 13:11:06;;;;;;;7.67;5.37;;;;;;;12.42;39.42;101874.45;2094168;83;21029;-83
2021/10/09 13:14:08;;;;;;;10.60;5.30;;;;;;;12.37;39.14;101867.35;2094384;83;21006;-83
2021/10/09 13:17:09;;;;;;;7.42;4.75;;;;;;;12.33;40.64;101866.75;2096205;84;21021;-83
2021/10/09 13:20:13;;;;;;;14.23;5.70;;;;;;;12.36;40.30;101866.98;2096020;83;20975;-83
2021/10/09 13:23:14;;;;;;;9.60;5.33;;;;;;;12.30;40.81;101858.58;2096618;83;21065;-83
2021/10/09 13:26:16;;;;;;;9.03;5.42;;;;;;;12.28;41.03;101861.02;2099435;83;21096;-82
2021/10/09 13:29:17;;;;;;;11.10;5.60;;;;;;;12.25;40.87;101857.30;2100455;83;21010;-82
2021/10/09 13:32:19;;;;;;;10.78;5.30;;;;;;;12.22;41.49;101852.22;2096728;83;20971;-82
2021/10/09 13:35:20;;;;;;;9.80;5.65;;;;;;;12.22;41.43;101848.23;2099301;83;21060;-83
2021/10/09 13:38:22;;;;;;;7.78;4.83;;;;;;;12.21;41.72;101844.73;2098634;83;21073;-81
2021/10/09 13:41:24;;;;;;;7.53;4.45;;;;;;;12.20;40.49;101842.22;2097979;83;21066;-80
2021/10/09 13:44:27;;;;;;;7.85;5.55;;;;;;;12.16;40.82;101837.64;2096849;83;21073;-82
2021/10/09 13:47:29;;;;;;;10.32;5.08;;;;;;;12.17;40.49;101844.66;2097944;83;21044;-82
2021/10/09 13:50:36;;;;;;;7.97;4.65;;;;;;;12.16;41.46;101835.47;2099133;83;21540;-81
2021/10/09 13:53:34;;;;;;;10.10;5.10;;;;;;;12.16;41.34;101832.81;2099698;83;20963;-82
2021/10/09 13:56:36;;;;;;;7.40;4.70;;;;;;;12.16;41.19;101832.31;2097289;83;21552;-81
2021/10/09 13:59:38;;;;;;;12.20;5.30;;;;;;;12.13;40.42;101834.41;2097789;83;21044;-82
2021/10/09 14:02:40;;;;;;;8.10;4.65;;;;;;;12.07;40.79;101825.98;2101272;83;21035;-83
2021/10/09 14:05:42;;;;;;;10.10;5.78;;;;;;;12.06;41.12;101830.13;2098701;83;21583;-83
2021/10/09 14:08:43;;;;;;;7.95;4.28;;;;;;;12.05;41.38;101831.09;2099679;83;21097;-82
2021/10/09 14:11:45;;;;;;;6.47;4.12;;;;;;;12.06;41.54;101831.47;2097365;83;21025;-82
2021/10/09 14:14:47;;;;;;;9.63;4.92;;;;;;;12.06;40.17;101826.98;2099434;83;21018;-82
2021/10/09 14:17:48;;;;;;;8.93;5.45;;;;;;;12.04;41.14;101827.59;2098278;83;21002;-82
2021/10/09 14:20:55;;;;;;;8.95;5.17;;;;;;;11.97;40.44;101825.13;2100435;83;20967;-82
2021/10/09 14:23:59;;;;;;;13.95;5.80;;;;;;;11.94;41.94;101822.74;2099305;83;20985;-82
2021/10/09 14:27:01;;;;;;;8.10;5.00;;;;;;;11.89;42.21;101819.14;2096511;83;21009;-83
2021/10/09 14:30:08;;;;;;;9.05;5.65;;;;;;;11.89;42.72;101818.31;2098956;83;20986;-83
2021/10/09 14:33:09;;;;;;;7.95;5.45;;;;;;;11.89;42.43;101820.97;2099832;83;21038;-83
2021/10/09 14:36:11;;;;;;;6.37;4.92;;;;;;;11.86;42.91;101814.59;2099692;83;21100;-82
2021/10/09 14:39:13;;;;;;;9.18;5.50;;;;;;;11.80;42.96;101814.61;2098182;83;21057;-83
2021/10/09 14:42:15;;;;;;;9.88;5.75;;;;;;;11.75;43.33;101814.16;2099467;83;21104;-83
2021/10/09 14:45:18;;;;;;;6.95;4.55;;;;;;;11.73;43.55;101814.77;2097720;83;21827;-83
2021/10/09 14:48:25;;;;;;;11.43;4.97;;;;;;;11.66;42.70;101817.13;2100164;83;21093;-83
2021/10/09 15:01:45;;;;;;;7.20;4.97;;;;;;;11.42;42.08;101809.92;2098788;83;22320;-83
2021/10/09 15:20:28;;;;;;;9.10;5.03;;;;;;;11.09;42.50;101813.61;2099108;83;21779;-84
2021/10/09 15:23:29;;;;;;;12.20;5.85;;;;;;;11.05;42.47;101806.88;2098669;83;21045;-83
2021/10/09 15:26:31;;;;;;;17.17;5.80;;;;;;;11.01;43.02;101810.29;2100302;83;21539;-84
2021/10/09 15:29:33;;;;;;;11.93;5.65;;;;;;;10.94;43.21;101811.27;2098975;83;21057;-83
2021/10/09 15:32:35;;;;;;;11.43;5.33;;;;;;;10.85;43.45;101809.39;2099489;83;20977;-83
2021/10/09 15:35:36;;;;;;;15.88;6.35;;;;;;;10.76;43.68;101811.48;2099078;83;21530;-86
2021/10/09 15:38:38;;;;;;;11.97;7.22;;;;;;;10.69;43.83;101811.12;2099367;83;20970;-83
2021/10/09 15:41:39;;;;;;;12.82;6.62;;;;;;;10.64;44.07;101810.66;2099645;83;21129;-88
2021/10/09 15:44:41;;;;;;;11.43;6.85;;;;;;;10.58;44.28;101809.00;2100284;83;20935;-87
2021/10/09 15:47:42;;;;;;;15.13;7.55;;;;;;;10.52;44.45;101816.49;2098202;83;20993;-88
2021/10/09 15:50:45;;;;;;;18.27;7.95;;;;;;;10.45;44.68;101811.83;2100644;83;21032;-87
2021/10/09 15:53:46;;;;;;;31.70;13.90;;;;;;;10.38;44.92;101811.95;2097135;83;21548;-87
2021/10/09 15:56:48;;;;;;;28.80;13.32;;;;;;;10.30;45.26;101813.43;2099660;82;21580;-87
2021/10/09 15:59:50;;;;;;;13.88;7.03;;;;;;;10.21;45.51;101814.12;2099312;83;21635;-87
2021/10/09 16:02:52;;;;;;;8.68;5.40;;;;;;;10.13;45.73;101815.70;2099190;83;21136;-87
2021/10/09 16:05:54;;;;;;;7.78;5.15;;;;;;;10.04;45.95;101819.44;2098561;83;20990;-88
2021/10/09 16:08:57;;;;;;;8.15;5.17;;;;;;;9.93;46.21;101813.30;2099878;83;21024;-88
2021/10/09 16:11:58;;;;;;;12.05;6.05;;;;;;;9.80;46.58;101816.94;2099535;83;20990;-87
2021/10/09 16:15:00;;;;;;;8.58;5.12;;;;;;;9.63;47.14;101818.73;2098944;83;21013;-87
2021/10/09 16:18:02;;;;;;;9.63;5.53;;;;;;;9.47;47.52;101823.05;2098156;83;20966;-86
2021/10/09 16:21:03;;;;;;;11.70;5.75;;;;;;;9.33;47.84;101815.31;2100156;83;20974;-86
2021/10/09 16:24:05;;;;;;;9.73;6.40;;;;;;;9.23;48.26;101820.94;2098580;83;20970;-84